Time;durP1;ratioP1;P1;durP2;ratioP2;P2;SDS_P1;SDS_P2;PMS_P1;PMS_P2;Temp;Humidity;BMP_temperature;BMP_pressure;BME280_temperature;BME280_humidity;BME280_pressure;Samples;Min_cycle;Max_cycle;Signal;HPM_P1;HPM_P2
2021/01/31 00:00:44;;;;;;;14.33;7.50;;;2.90;99.90;;;;;;5034146;28;20407;-80
2021/01/31 00:03:13;;;;;;;8.83;7.80;;;2.90;99.90;;;;;;5030854;28;20816;-80
2021/01/31 00:05:39;;;;;;;9.47;7.33;;;2.90;99.90;;;;;;5034300;28;20465;-80
2021/01/31 00:08:09;;;;;;;9.00;7.93;;;2.90;99.90;;;;;;5030822;28;20470;-80
2021/01/31 00:10:35;;;;;;;9.57;7.50;;;2.90;99.90;;;;;;5030251;28;20466;-80
2021/01/31 00:13:02;;;;;;;10.17;7.70;;;3.00;99.90;;;;;;5033349;28;20897;-80
2021/01/31 00:15:32;;;;;;;10.00;7.77;;;2.90;99.90;;;;;;5034127;28;20784;-80
2021/01/31 00:17:58;;;;;;;11.13;8.00;;;3.00;99.90;;;;;;5034172;28;20969;-80
2021/01/31 00:20:28;;;;;;;8.03;7.23;;;2.90;99.90;;;;;;5034327;28;20436;-80
2021/01/31 00:22:54;;;;;;;12.70;8.93;;;2.80;99.90;;;;;;5033528;28;20726;-80
2021/01/31 00:25:20;;;;;;;11.20;8.10;;;2.80;99.90;;;;;;5038266;28;20429;-80
2021/01/31 00:27:46;;;;;;;9.77;8.70;;;2.80;99.90;;;;;;5037104;28;20206;-80
2021/01/31 00:30:18;;;;;;;10.00;8.67;;;2.70;99.90;;;;;;5036626;28;20464;-79
2021/01/31 00:32:44;;;;;;;9.10;7.67;;;2.70;99.90;;;;;;5039835;28;20431;-79
2021/01/31 00:35:11;;;;;;;10.60;8.80;;;2.70;99.90;;;;;;5037026;28;20440;-80
2021/01/31 00:37:36;;;;;;;8.87;7.50;;;2.70;99.90;;;;;;5034918;28;20481;-80
2021/01/31 00:40:03;;;;;;;9.27;7.67;;;2.70;99.90;;;;;;5034134;28;20411;-80
2021/01/31 00:42:29;;;;;;;12.93;8.40;;;2.70;99.90;;;;;;5034826;28;20661;-80
2021/01/31 00:44:54;;;;;;;9.70;8.27;;;2.80;99.90;;;;;;5034451;28;20436;-80
2021/01/31 00:47:21;;;;;;;8.57;7.67;;;2.80;99.90;;;;;;5034381;28;20194;-80
2021/01/31 00:49:48;;;;;;;11.50;9.10;;;2.70;99.90;;;;;;5032756;28;20222;-80
2021/01/31 00:52:14;;;;;;;12.87;8.67;;;2.80;99.90;;;;;;5034659;28;20483;-80
2021/01/31 00:54:39;;;;;;;9.83;8.37;;;2.80;99.90;;;;;;5034369;28;20420;-81
2021/01/31 00:57:05;;;;;;;12.10;9.10;;;2.80;99.90;;;;;;5030102;28;20197;-80
2021/01/31 00:59:31;;;;;;;12.83;8.30;;;2.80;99.90;;;;;;5033496;28;20185;-80
2021/01/31 01:01:57;;;;;;;16.70;8.73;;;2.80;99.90;;;;;;5032456;28;20437;-80
2021/01/31 01:04:23;;;;;;;13.40;9.33;;;2.80;99.90;;;;;;5033713;28;20492;-80
2021/01/31 01:06:49;;;;;;;12.10;9.33;;;2.70;99.90;;;;;;5032512;28;20208;-80
2021/01/31 01:09:14;;;;;;;13.27;9.83;;;2.80;99.90;;;;;;5033158;28;20421;-80
2021/01/31 01:11:41;;;;;;;9.47;8.13;;;2.80;99.90;;;;;;5033453;28;20220;-80
2021/01/31 01:14:06;;;;;;;10.30;8.07;;;2.80;99.90;;;;;;5033699;28;20762;-81
2021/01/31 01:16:33;;;;;;;11.80;8.67;;;2.80;99.90;;;;;;5033930;28;20443;-80
2021/01/31 01:18:58;;;;;;;14.43;10.17;;;2.80;99.90;;;;;;5033394;28;20193;-80
2021/01/31 01:21:24;;;;;;;12.97;9.90;;;2.70;99.90;;;;;;5033722;28;20477;-80
2021/01/31 01:23:49;;;;;;;12.80;10.00;;;2.70;99.90;;;;;;5032483;28;20276;-80
2021/01/31 01:26:15;;;;;;;15.37;10.50;;;2.70;99.90;;;;;;5030334;28;20205;-80
2021/01/31 01:28:40;;;;;;;11.50;9.47;;;2.80;99.90;;;;;;5031277;28;20557;-80
2021/01/31 01:31:06;;;;;;;13.87;10.90;;;2.80;99.90;;;;;;5030819;28;20213;-80
2021/01/31 01:33:32;;;;;;;10.90;9.80;;;2.80;99.90;;;;;;5031300;28;20228;-80
2021/01/31 01:35:58;;;;;;;13.43;10.10;;;2.80;99.90;;;;;;5031003;28;20285;-80
2021/01/31 01:38:24;;;;;;;13.57;10.43;;;2.80;99.90;;;;;;5031464;28;20200;-80
2021/01/31 01:40:54;;;;;;;12.73;9.80;;;2.80;99.90;;;;;;5031701;28;20812;-79
2021/01/31 01:43:20;;;;;;;13.67;10.90;;;2.80;99.90;;;;;;5034021;28;20204;-80
2021/01/31 01:46:16;;;;;;;15.73;10.40;;;2.80;99.90;;;;;;5033608;28;20424;-80
2021/01/31 01:48:41;;;;;;;12.77;10.10;;;2.80;99.90;;;;;;5012975;28;20439;-80
2021/01/31 01:51:07;;;;;;;13.50;11.33;;;2.80;99.90;;;;;;5031766;28;21001;-80
2021/01/31 01:53:33;;;;;;;13.90;11.80;;;2.90;99.90;;;;;;5033569;28;20172;-80
2021/01/31 01:56:13;;;;;;;10.57;8.67;;;2.90;99.90;;;;;;5033435;28;20205;-80
2021/01/31 01:58:40;;;;;;;15.70;10.87;;;2.90;99.90;;;;;;5030086;28;20555;-80
2021/01/31 02:01:07;;;;;;;15.37;10.67;;;2.80;99.90;;;;;;5032951;28;20478;-80
2021/01/31 02:03:37;;;;;;;12.10;10.30;;;2.80;99.90;;;;;;5034339;28;20454;-80
2021/01/31 02:06:26;;;;;;;13.30;11.20;;;2.80;99.90;;;;;;5032919;28;20430;-80
2021/01/31 02:08:54;;;;;;;18.50;10.80;;;2.80;99.90;;;;;;5031520;28;20422;-80
2021/01/31 02:11:21;;;;;;;13.33;10.43;;;2.80;99.90;;;;;;5032525;28;21007;-79
2021/01/31 02:13:54;;;;;;;17.47;12.93;;;2.80;99.90;;;;;;5036636;28;20468;-81
2021/01/31 02:16:50;;;;;;;13.33;10.70;;;2.70;99.90;;;;;;5036257;28;20490;-80
2021/01/31 02:19:24;;;;;;;14.03;10.27;;;2.70;99.90;;;;;;5033962;28;20449;-80
2021/01/31 02:22:11;;;;;;;13.80;10.00;;;2.80;99.90;;;;;;5037233;28;20422;-80
2021/01/31 02:24:49;;;;;;;11.93;10.57;;;2.80;99.90;;;;;;5031759;28;20448;-80
2021/01/31 02:27:17;;;;;;;14.03;10.23;;;2.70;99.90;;;;;;5035565;28;20445;-80
2021/01/31 02:30:02;;;;;;;15.30;11.20;;;2.70;99.90;;;;;;5036589;28;20489;-80
2021/01/31 02:33:01;;;;;;;14.40;10.87;;;2.70;99.90;;;;;;5036464;28;20451;-80
2021/01/31 02:35:29;;;;;;;13.70;10.23;;;2.70;99.90;;;;;;5035048;28;20415;-80
2021/01/31 02:37:59;;;;;;;14.13;11.20;;;2.80;99.90;;;;;;5036421;28;20445;-80
2021/01/31 02:40:30;;;;;;;14.33;10.67;;;2.80;99.90;;;;;;5036215;28;20429;-80
2021/01/31 02:43:15;;;;;;;13.03;10.70;;;2.70;99.90;;;;;;5036219;28;20953;-80
2021/01/31 02:45:47;;;;;;;15.67;10.90;;;2.70;99.90;;;;;;5032758;28;20417;-80
2021/01/31 02:48:19;;;;;;;15.20;11.00;;;2.70;99.90;;;;;;5036160;28;20395;-80
2021/01/31 02:50:53;;;;;;;14.47;10.83;;;2.70;99.90;;;;;;5035791;28;20460;-80
2021/01/31 02:53:34;;;;;;;15.80;11.33;;;2.70;99.90;;;;;;5036462;28;20424;-80
2021/01/31 02:56:10;;;;;;;14.80;11.60;;;2.70;99.90;;;;;;5036370;28;20475;-80
2021/01/31 02:58:44;;;;;;;17.73;9.43;;;2.70;99.90;;;;;;5032435;28;20494;-80
2021/01/31 03:01:25;;;;;;;12.20;10.57;;;2.70;99.90;;;;;;5031245;28;20461;-81
2021/01/31 03:04:04;;;;;;;16.63;10.50;;;2.60;99.90;;;;;;5033015;28;20467;-80
2021/01/31 03:06:32;;;;;;;15.60;10.97;;;2.60;99.90;;;;;;5034777;28;20456;-80
2021/01/31 03:09:05;;;;;;;13.90;10.30;;;2.60;99.90;;;;;;5034926;28;20512;-81
2021/01/31 03:11:43;;;;;;;14.00;11.20;;;2.70;99.90;;;;;;5032709;28;20464;-81
2021/01/31 03:14:18;;;;;;;13.23;10.20;;;2.60;99.90;;;;;;5030926;28;20502;-80
2021/01/31 03:17:02;;;;;;;14.70;10.57;;;2.60;99.90;;;;;;5062779;28;20450;-80
2021/01/31 03:19:58;;;;;;;19.43;13.00;;;2.60;99.90;;;;;;5032357;28;20481;-79
2021/01/31 03:22:30;;;;;;;19.97;12.83;;;2.50;99.90;;;;;;5025533;28;20421;-80
2021/01/31 03:25:02;;;;;;;14.77;10.83;;;2.50;99.90;;;;;;5033433;28;20920;-80
2021/01/31 03:27:33;;;;;;;39.23;18.30;;;2.50;99.90;;;;;;5032957;28;20488;-81
2021/01/31 03:29:58;;;;;;;40.27;20.77;;;2.40;99.90;;;;;;5033506;28;20959;-80
2021/01/31 03:32:29;;;;;;;21.13;14.10;;;2.40;99.90;;;;;;5032984;28;20425;-80
2021/01/31 03:35:23;;;;;;;31.63;17.53;;;2.40;99.90;;;;;;5032941;28;20181;-79
2021/01/31 03:37:55;;;;;;;18.93;12.93;;;2.40;99.90;;;;;;5028977;28;20447;-80
2021/01/31 03:40:23;;;;;;;25.53;12.63;;;2.40;99.90;;;;;;5034862;28;20400;-80
2021/01/31 03:42:49;;;;;;;14.80;10.47;;;2.40;99.90;;;;;;5034786;28;20406;-80
2021/01/31 03:45:20;;;;;;;16.60;11.43;;;2.40;99.90;;;;;;5034971;28;20427;-80
2021/01/31 03:48:09;;;;;;;18.43;11.53;;;2.40;99.90;;;;;;5035242;28;20494;-80
2021/01/31 03:50:35;;;;;;;16.50;11.80;;;2.40;99.90;;;;;;5035635;28;20553;-81
2021/01/31 03:53:01;;;;;;;17.70;12.83;;;2.40;99.90;;;;;;5035150;28;20475;-80
2021/01/31 03:55:27;;;;;;;19.50;10.57;;;2.30;99.90;;;;;;5035784;28;20194;-80
2021/01/31 03:57:59;;;;;;;18.03;11.70;;;2.30;99.90;;;;;;5034906;28;20937;-80
2021/01/31 04:00:28;;;;;;;20.30;12.37;;;2.30;99.90;;;;;;5035045;28;20186;-80
2021/01/31 04:03:11;;;;;;;16.30;11.90;;;2.30;99.90;;;;;;5034282;28;20395;-80
2021/01/31 04:05:41;;;;;;;16.73;12.00;;;2.30;99.90;;;;;;5030680;28;20423;-79
2021/01/31 04:08:11;;;;;;;21.80;12.80;;;2.40;99.90;;;;;;5030484;28;20434;-80
2021/01/31 04:10:43;;;;;;;15.77;11.00;;;2.40;99.90;;;;;;5029662;28;20490;-80
2021/01/31 04:13:10;;;;;;;17.07;11.87;;;2.40;99.90;;;;;;5030310;28;20420;-81
2021/01/31 04:15:43;;;;;;;17.60;11.40;;;2.40;99.90;;;;;;5032819;28;20961;-80
2021/01/31 04:18:10;;;;;;;21.70;13.20;;;2.30;99.90;;;;;;5029456;28;20421;-80
2021/01/31 04:20:36;;;;;;;20.27;12.73;;;2.40;99.90;;;;;;5032959;28;20429;-80
2021/01/31 04:23:02;;;;;;;20.83;12.07;;;2.40;99.90;;;;;;5032926;28;20464;-80
2021/01/31 04:25:28;;;;;;;17.80;11.80;;;2.40;99.90;;;;;;5033905;28;20438;-80
2021/01/31 04:27:55;;;;;;;15.13;11.90;;;2.40;99.90;;;;;;5033695;28;20211;-80
2021/01/31 04:30:21;;;;;;;18.73;12.13;;;2.40;99.90;;;;;;5033484;28;20472;-80
2021/01/31 04:32:46;;;;;;;15.67;12.13;;;2.40;99.90;;;;;;5033871;28;20413;-80
2021/01/31 04:35:13;;;;;;;15.20;11.87;;;2.40;99.90;;;;;;5032525;28;20425;-80
2021/01/31 04:37:39;;;;;;;18.20;12.43;;;2.40;99.90;;;;;;5032603;28;20687;-80
2021/01/31 04:40:08;;;;;;;14.90;12.50;;;2.40;99.90;;;;;;5032816;28;20407;-80
2021/01/31 04:42:34;;;;;;;19.40;13.40;;;2.40;99.90;;;;;;5033054;28;20179;-80
2021/01/31 04:44:59;;;;;;;15.33;12.37;;;2.40;99.90;;;;;;5033574;28;20433;-80
2021/01/31 04:47:37;;;;;;;16.03;11.43;;;2.40;99.90;;;;;;5032421;28;20204;-80
2021/01/31 04:50:18;;;;;;;17.50;12.17;;;2.30;99.90;;;;;;5033107;28;20199;-80
2021/01/31 04:53:02;;;;;;;15.40;11.60;;;2.40;99.90;;;;;;5062288;28;20423;-80
2021/01/31 04:55:50;;;;;;;22.77;14.33;;;2.30;99.90;;;;;;5033100;28;20392;-80
2021/01/31 04:58:44;;;;;;;19.07;14.20;;;2.40;99.90;;;;;;5030433;28;20423;-80
2021/01/31 05:01:25;;;;;;;17.60;12.43;;;2.40;99.90;;;;;;5028305;28;20429;-80
2021/01/31 05:04:03;;;;;;;18.80;13.20;;;2.30;99.90;;;;;;5030461;28;20928;-80
2021/01/31 05:06:36;;;;;;;14.77;11.50;;;2.30;99.90;;;;;;5031837;28;20420;-80
2021/01/31 05:09:03;;;;;;;18.87;13.40;;;2.30;99.90;;;;;;5030641;28;20444;-80
2021/01/31 05:11:38;;;;;;;20.40;13.73;;;2.40;99.90;;;;;;5031794;28;20493;-80
2021/01/31 05:14:14;;;;;;;15.27;12.37;;;2.30;99.90;;;;;;5031853;28;20395;-81
2021/01/31 05:16:40;;;;;;;17.40;12.60;;;2.30;99.90;;;;;;5029247;28;20478;-79
2021/01/31 05:19:11;;;;;;;17.93;12.50;;;2.30;99.90;;;;;;5028461;28;20418;-80
2021/01/31 05:21:36;;;;;;;17.97;12.47;;;2.20;99.90;;;;;;5028923;28;20401;-80
2021/01/31 05:24:14;;;;;;;18.13;12.17;;;2.40;99.90;;;;;;5032748;28;20407;-80
2021/01/31 05:26:43;;;;;;;15.50;10.90;;;2.40;99.90;;;;;;5029243;28;20690;-80
2021/01/31 05:29:21;;;;;;;19.80;12.27;;;2.40;99.90;;;;;;5028428;28;20452;-80
2021/01/31 05:32:06;;;;;;;16.90;11.50;;;2.40;99.90;;;;;;5029159;28;20552;-79
2021/01/31 05:34:34;;;;;;;14.00;10.97;;;2.40;99.90;;;;;;5032277;28;20428;-80
2021/01/31 05:37:14;;;;;;;14.27;11.30;;;2.40;99.90;;;;;;5031768;28;20451;-80
2021/01/31 05:39:41;;;;;;;15.40;10.90;;;2.50;99.90;;;;;;5029492;28;20465;-80
2021/01/31 05:42:12;;;;;;;15.93;10.47;;;2.50;99.90;;;;;;5028447;28;20392;-80
2021/01/31 05:44:38;;;;;;;16.80;12.63;;;2.40;99.90;;;;;;5029667;28;20510;-80
2021/01/31 05:47:24;;;;;;;16.50;12.53;;;2.40;99.90;;;;;;5035935;28;20473;-80
2021/01/31 05:49:53;;;;;;;15.10;11.40;;;2.50;99.90;;;;;;5032088;28;20675;-78
2021/01/31 05:52:19;;;;;;;19.40;13.10;;;2.40;99.90;;;;;;5034173;28;20424;-78
2021/01/31 05:54:46;;;;;;;18.70;13.20;;;2.40;99.90;;;;;;5034234;28;20437;-78
2021/01/31 05:57:40;;;;;;;14.23;11.03;;;2.40;99.90;;;;;;5032670;28;20221;-79
2021/01/31 06:00:31;;;;;;;19.30;11.87;;;2.40;99.90;;;;;;5016794;28;20441;-73
2021/01/31 06:03:05;;;;;;;16.90;11.77;;;2.40;99.90;;;;;;5032860;28;20796;-73
2021/01/31 06:05:32;;;;;;;17.47;12.10;;;2.50;99.90;;;;;;5034182;28;20553;-73
2021/01/31 06:08:05;;;;;;;19.27;11.53;;;2.50;99.90;;;;;;5033664;28;20988;-73
2021/01/31 06:10:35;;;;;;;15.03;11.27;;;2.40;99.90;;;;;;5033673;28;20521;-73
2021/01/31 06:13:19;;;;;;;16.03;10.97;;;2.50;99.90;;;;;;5032531;28;20428;-73
2021/01/31 06:15:52;;;;;;;19.30;12.40;;;2.50;99.90;;;;;;5030837;28;20423;-73
2021/01/31 06:18:29;;;;;;;16.10;11.20;;;2.50;99.90;;;;;;5033602;28;20419;-73
2021/01/31 06:21:09;;;;;;;13.20;10.10;;;2.60;99.90;;;;;;5032321;28;20792;-73
2021/01/31 06:23:43;;;;;;;14.50;10.53;;;2.60;99.90;;;;;;5032297;28;20473;-73
2021/01/31 06:26:43;;;;;;;14.70;11.70;;;2.60;99.90;;;;;;5029822;28;20447;-73
2021/01/31 06:29:31;;;;;;;13.87;10.30;;;2.60;99.90;;;;;;5026572;28;20404;-73
2021/01/31 06:32:06;;;;;;;15.40;10.77;;;2.60;99.90;;;;;;5032094;28;20747;-73
2021/01/31 06:34:32;;;;;;;14.40;11.50;;;2.60;99.90;;;;;;5032099;28;20456;-74
2021/01/31 06:37:23;;;;;;;13.67;10.53;;;2.60;99.90;;;;;;5033092;28;20500;-73
2021/01/31 06:40:14;;;;;;;14.90;10.80;;;2.60;99.90;;;;;;5031363;28;20678;-73
2021/01/31 06:43:04;;;;;;;14.60;11.50;;;2.60;99.90;;;;;;5028647;28;20677;-73
2021/01/31 06:45:53;;;;;;;13.83;10.40;;;2.60;99.90;;;;;;5032277;28;20930;-74
2021/01/31 06:48:25;;;;;;;13.77;10.70;;;2.60;99.90;;;;;;5016857;28;20434;-75
2021/01/31 06:51:20;;;;;;;14.70;10.50;;;2.60;99.90;;;;;;5031617;28;21023;-76
2021/01/31 06:54:03;;;;;;;11.40;8.47;;;2.60;99.90;;;;;;5023452;28;20851;-75
2021/01/31 06:56:47;;;;;;;14.80;10.80;;;2.60;99.90;;;;;;5031624;28;20455;-74
2021/01/31 06:59:39;;;;;;;11.67;10.27;;;2.60;99.90;;;;;;5029069;28;20942;-74
2021/01/31 07:02:51;;;;;;;20.70;14.00;;;2.60;99.90;;;;;;5031342;28;20476;-74
2021/01/31 07:05:27;;;;;;;13.30;10.03;;;2.60;99.90;;;;;;5062115;28;20523;-74
2021/01/31 07:08:20;;;;;;;16.50;10.40;;;2.60;99.90;;;;;;5032890;28;20425;-74
2021/01/31 07:11:00;;;;;;;13.47;10.43;;;2.60;99.90;;;;;;5028478;28;20525;-74
2021/01/31 07:13:51;;;;;;;12.70;8.90;;;2.60;99.90;;;;;;5032815;28;20634;-74
2021/01/31 07:16:19;;;;;;;13.90;10.57;;;2.60;99.90;;;;;;5029771;28;20836;-75
2021/01/31 07:18:55;;;;;;;15.97;10.67;;;2.70;99.90;;;;;;5031273;28;20468;-74
2021/01/31 07:21:29;;;;;;;13.13;10.20;;;2.60;99.90;;;;;;5032360;28;20420;-74
2021/01/31 07:24:01;;;;;;;13.10;9.70;;;2.60;99.90;;;;;;5032504;28;20474;-75
2021/01/31 07:26:35;;;;;;;20.20;10.80;;;2.50;99.90;;;;;;5031159;28;20811;-76
2021/01/31 07:29:05;;;;;;;13.57;11.07;;;2.60;99.90;;;;;;5032328;28;20432;-74
2021/01/31 07:31:39;;;;;;;16.83;10.50;;;2.60;99.90;;;;;;5032246;28;20468;-74
2021/01/31 07:34:21;;;;;;;26.00;16.90;;;2.60;99.90;;;;;;5031051;28;20426;-74
2021/01/31 07:37:07;;;;;;;12.03;9.53;;;2.60;99.90;;;;;;5029322;28;20439;-74
2021/01/31 07:40:00;;;;;;;16.67;10.73;;;2.70;99.90;;;;;;5032209;28;20417;-75
2021/01/31 07:42:28;;;;;;;16.30;11.90;;;2.70;99.90;;;;;;5029601;28;20419;-74
2021/01/31 07:44:59;;;;;;;15.10;10.90;;;2.70;99.90;;;;;;5032038;28;20947;-74
2021/01/31 07:47:25;;;;;;;15.47;10.60;;;2.70;99.90;;;;;;5032069;28;20444;-75
2021/01/31 07:49:56;;;;;;;15.80;11.30;;;2.70;99.90;;;;;;5032271;28;20458;-75
2021/01/31 07:52:28;;;;;;;14.17;10.53;;;2.60;99.90;;;;;;5032085;28;20937;-74
2021/01/31 07:55:18;;;;;;;12.67;10.10;;;2.60;99.90;;;;;;5031696;28;20429;-74
2021/01/31 07:58:19;;;;;;;14.50;10.50;;;2.70;99.90;;;;;;5028797;28;20447;-74
2021/01/31 08:00:46;;;;;;;14.00;10.30;;;2.80;99.90;;;;;;5014362;28;20878;-73
2021/01/31 08:03:33;;;;;;;16.50;12.30;;;2.80;99.90;;;;;;5030657;28;20428;-73
2021/01/31 08:06:20;;;;;;;12.63;10.57;;;2.90;99.90;;;;;;5031234;28;20450;-72
2021/01/31 08:08:49;;;;;;;12.97;10.50;;;2.90;99.90;;;;;;5028391;28;20443;-72
2021/01/31 08:11:17;;;;;;;16.80;10.87;;;2.90;99.90;;;;;;5030646;28;21002;-72
2021/01/31 08:13:47;;;;;;;13.17;10.13;;;3.00;99.90;;;;;;5031453;28;20428;-72
2021/01/31 08:16:47;;;;;;;16.07;11.03;;;3.00;99.90;;;;;;5031096;28;20436;-72
2021/01/31 08:19:19;;;;;;;16.47;10.60;;;3.00;99.90;;;;;;5028081;28;20384;-72
2021/01/31 08:21:49;;;;;;;14.30;10.20;;;3.00;99.90;;;;;;5029722;28;20435;-73
2021/01/31 08:24:34;;;;;;;12.73;9.83;;;3.10;99.90;;;;;;5029657;28;20467;-75
2021/01/31 08:27:00;;;;;;;16.70;11.30;;;3.00;99.90;;;;;;5029851;28;20546;-73
2021/01/31 08:29:28;;;;;;;16.30;11.43;;;3.00;99.90;;;;;;5031292;28;20416;-75
2021/01/31 08:32:06;;;;;;;12.40;9.30;;;3.00;99.90;;;;;;5029419;28;20623;-73
2021/01/31 08:35:10;;;;;;;10.47;8.67;;;3.00;99.90;;;;;;5030922;28;20480;-74
2021/01/31 08:37:35;;;;;;;12.70;8.90;;;3.00;99.90;;;;;;5030307;28;20459;-74
2021/01/31 08:40:14;;;;;;;12.30;9.20;;;3.00;99.90;;;;;;5030912;28;21057;-72
2021/01/31 08:42:48;;;;;;;11.93;8.83;;;3.00;99.90;;;;;;5021675;28;20233;-75
2021/01/31 08:45:14;;;;;;;13.80;9.40;;;3.00;99.90;;;;;;5027652;28;20462;-73
2021/01/31 08:47:41;;;;;;;13.30;9.33;;;3.00;99.90;;;;;;5030672;28;20478;-73
2021/01/31 08:50:08;;;;;;;13.60;9.70;;;3.10;99.90;;;;;;5030351;28;20190;-75
2021/01/31 08:52:33;;;;;;;10.83;8.67;;;3.10;99.90;;;;;;5030979;28;20423;-73
2021/01/31 08:55:00;;;;;;;10.13;7.90;;;3.10;99.90;;;;;;5030551;28;20426;-73
2021/01/31 08:57:26;;;;;;;9.37;8.00;;;3.10;99.90;;;;;;5030469;28;20268;-73
2021/01/31 08:59:53;;;;;;;10.33;8.57;;;3.10;99.90;;;;;;5030552;28;20424;-74
2021/01/31 09:02:25;;;;;;;11.30;8.63;;;3.10;99.90;;;;;;5030443;28;20422;-73
2021/01/31 09:04:56;;;;;;;11.70;9.60;;;3.20;99.90;;;;;;5030885;28;20426;-73
2021/01/31 09:07:28;;;;;;;10.13;8.37;;;3.30;99.90;;;;;;5030449;28;20524;-74
2021/01/31 09:10:17;;;;;;;11.83;9.80;;;3.30;99.90;;;;;;5029160;28;20467;-74
2021/01/31 09:12:43;;;;;;;11.10;7.90;;;3.30;99.90;;;;;;5027257;28;20783;-73
2021/01/31 09:15:12;;;;;;;11.10;9.40;;;3.30;99.90;;;;;;5030540;28;20429;-74
2021/01/31 09:17:37;;;;;;;11.60;9.10;;;3.40;99.90;;;;;;5025352;28;20203;-73
2021/01/31 09:20:09;;;;;;;11.13;9.37;;;3.50;99.90;;;;;;5030298;28;20418;-72
2021/01/31 09:22:38;;;;;;;11.70;8.33;;;3.40;99.90;;;;;;5034232;28;20178;-73
2021/01/31 09:25:05;;;;;;;14.70;8.47;;;3.50;99.90;;;;;;5034611;28;20940;-74
2021/01/31 09:27:31;;;;;;;11.57;8.30;;;3.50;99.90;;;;;;5034488;28;20448;-74
2021/01/31 09:30:04;;;;;;;13.17;9.30;;;3.50;99.90;;;;;;5033085;28;20461;-75
2021/01/31 09:32:36;;;;;;;11.13;9.70;;;3.50;99.90;;;;;;5034571;28;20839;-74
2021/01/31 09:35:05;;;;;;;13.03;9.97;;;3.50;99.90;;;;;;5034357;28;20433;-74
2021/01/31 09:37:32;;;;;;;11.90;8.63;;;3.50;99.90;;;;;;5034564;28;20490;-75
2021/01/31 09:40:01;;;;;;;11.40;9.67;;;3.60;99.90;;;;;;5032964;28;20429;-75
2021/01/31 09:42:32;;;;;;;11.20;9.43;;;3.70;99.90;;;;;;5034709;28;20915;-73
2021/01/31 09:45:02;;;;;;;13.50;8.83;;;3.60;99.90;;;;;;5032906;28;20438;-75
2021/01/31 09:47:28;;;;;;;12.30;9.20;;;3.60;99.90;;;;;;5034144;28;20884;-74
2021/01/31 09:49:58;;;;;;;13.90;9.07;;;3.60;99.90;;;;;;5033800;28;20868;-74
2021/01/31 09:52:24;;;;;;;10.37;8.07;;;3.70;99.90;;;;;;5034113;28;20643;-73
2021/01/31 09:54:50;;;;;;;12.50;10.20;;;3.80;99.90;;;;;;5033815;28;20456;-74
2021/01/31 09:57:26;;;;;;;11.67;9.50;;;3.80;99.90;;;;;;5032442;28;20490;-74
2021/01/31 10:00:09;;;;;;;13.57;9.63;;;3.80;99.90;;;;;;5033806;28;20433;-74
2021/01/31 10:02:35;;;;;;;14.73;8.73;;;3.80;99.90;;;;;;5034043;28;20449;-75
2021/01/31 10:05:04;;;;;;;12.77;10.20;;;3.80;99.90;;;;;;5033371;28;20821;-73
2021/01/31 10:07:34;;;;;;;11.03;8.90;;;3.90;99.90;;;;;;5033631;28;20441;-73
2021/01/31 10:10:25;;;;;;;10.47;8.30;;;3.90;99.90;;;;;;5015694;28;20468;-73
2021/01/31 10:13:10;;;;;;;11.30;9.10;;;3.90;99.90;;;;;;5031387;28;20427;-73
2021/01/31 10:15:41;;;;;;;11.93;8.50;;;3.90;99.90;;;;;;5033692;28;20430;-73
2021/01/31 10:18:13;;;;;;;11.47;10.27;;;3.80;99.90;;;;;;5029574;28;20394;-73
2021/01/31 10:20:40;;;;;;;14.77;11.70;;;3.80;99.90;;;;;;5029557;28;20483;-73
2021/01/31 10:23:06;;;;;;;9.33;8.33;;;3.80;99.90;;;;;;5033165;28;20424;-74
2021/01/31 10:25:33;;;;;;;12.93;9.63;;;3.80;99.90;;;;;;5033401;28;20779;-73
2021/01/31 10:27:59;;;;;;;11.47;9.33;;;3.80;99.90;;;;;;5033160;28;20237;-74
2021/01/31 10:30:36;;;;;;;12.60;9.83;;;3.80;99.90;;;;;;5030880;28;21018;-74
2021/01/31 10:33:03;;;;;;;12.73;8.93;;;3.80;99.90;;;;;;5031445;28;20175;-72
2021/01/31 10:35:33;;;;;;;11.73;9.80;;;3.90;99.90;;;;;;5033152;28;20432;-75
2021/01/31 10:38:19;;;;;;;12.90;9.67;;;3.90;99.90;;;;;;5033449;28;20872;-73
2021/01/31 10:40:45;;;;;;;12.60;9.63;;;3.90;99.90;;;;;;5029798;28;20407;-73
2021/01/31 10:43:10;;;;;;;13.40;9.67;;;3.90;99.90;;;;;;5032985;28;20425;-74
2021/01/31 10:45:36;;;;;;;12.87;9.37;;;3.90;99.90;;;;;;5033269;28;20650;-74
2021/01/31 10:48:01;;;;;;;11.60;10.23;;;4.00;99.90;;;;;;5032812;28;20681;-74
2021/01/31 10:50:27;;;;;;;10.40;8.67;;;4.00;99.90;;;;;;5032622;28;20218;-74
2021/01/31 10:52:52;;;;;;;13.77;10.87;;;4.00;99.90;;;;;;5032870;28;20263;-73
2021/01/31 10:55:18;;;;;;;15.30;11.40;;;4.10;99.90;;;;;;5032551;28;20178;-75
2021/01/31 10:57:44;;;;;;;15.20;11.23;;;4.20;99.90;;;;;;5032809;28;20200;-72
2021/01/31 11:00:11;;;;;;;13.70;10.10;;;4.30;99.90;;;;;;5032688;28;20186;-73
2021/01/31 11:02:37;;;;;;;12.97;11.07;;;4.30;99.90;;;;;;5032616;28;20433;-73
2021/01/31 11:05:04;;;;;;;15.53;10.77;;;4.30;99.90;;;;;;5032636;28;20412;-75
2021/01/31 11:07:31;;;;;;;16.63;11.47;;;4.40;99.90;;;;;;5032671;28;20194;-73
2021/01/31 11:09:56;;;;;;;14.30;11.00;;;4.40;99.90;;;;;;5032358;28;20845;-73
2021/01/31 11:12:22;;;;;;;13.87;9.63;;;4.50;99.90;;;;;;5031259;28;20400;-73
2021/01/31 11:14:47;;;;;;;13.90;10.40;;;4.60;99.90;;;;;;5032738;28;20184;-73
2021/01/31 11:17:13;;;;;;;13.47;9.80;;;4.60;99.90;;;;;;5032177;28;20208;-75
2021/01/31 11:19:39;;;;;;;13.73;10.13;;;4.60;99.90;;;;;;5032744;28;20171;-73
2021/01/31 11:22:04;;;;;;;11.43;9.33;;;4.60;99.90;;;;;;5030969;28;20208;-73
2021/01/31 11:24:30;;;;;;;16.00;10.87;;;4.70;99.90;;;;;;5032205;28;20186;-73
2021/01/31 11:26:55;;;;;;;13.67;10.50;;;4.60;99.90;;;;;;5032125;28;20208;-75
2021/01/31 11:29:21;;;;;;;16.07;11.40;;;4.60;99.90;;;;;;5031881;28;20628;-73
2021/01/31 11:31:46;;;;;;;16.27;9.90;;;4.80;99.90;;;;;;5032188;28;20212;-73
2021/01/31 11:34:12;;;;;;;15.17;10.00;;;4.90;99.90;;;;;;5031900;28;20188;-76
2021/01/31 11:36:37;;;;;;;14.80;10.00;;;5.00;99.90;;;;;;5031991;28;20306;-74
2021/01/31 11:39:10;;;;;;;14.47;10.97;;;5.00;99.90;;;;;;5031456;28;20572;-73
2021/01/31 11:41:36;;;;;;;10.57;8.33;;;5.20;99.90;;;;;;5030818;28;20280;-73
2021/01/31 11:44:03;;;;;;;14.57;10.10;;;5.20;99.90;;;;;;5032278;28;20483;-73
2021/01/31 11:46:29;;;;;;;13.70;9.27;;;5.10;99.90;;;;;;5032278;28;20443;-75
2021/01/31 11:48:54;;;;;;;13.90;10.83;;;5.10;99.90;;;;;;5031958;28;20438;-73
2021/01/31 11:51:20;;;;;;;17.97;11.67;;;5.20;99.90;;;;;;5031500;28;20235;-73
2021/01/31 11:53:46;;;;;;;15.87;10.80;;;5.20;99.90;;;;;;5031679;28;20271;-75
2021/01/31 11:56:11;;;;;;;13.13;9.00;;;5.20;99.90;;;;;;5030401;28;20455;-76
2021/01/31 11:58:37;;;;;;;13.90;10.30;;;5.10;99.90;;;;;;5031793;28;20188;-74
2021/01/31 12:01:03;;;;;;;14.30;11.30;;;5.10;99.90;;;;;;5031291;28;20192;-76
2021/01/31 12:03:28;;;;;;;14.10;10.47;;;5.20;99.90;;;;;;5030236;28;20719;-74
2021/01/31 12:05:54;;;;;;;13.33;10.20;;;5.20;99.90;;;;;;5031288;28;20645;-73
2021/01/31 12:08:19;;;;;;;13.67;9.97;;;5.10;99.90;;;;;;5030945;28;20195;-73
2021/01/31 12:10:45;;;;;;;13.73;10.17;;;5.10;99.90;;;;;;5029741;28;20692;-73
2021/01/31 12:13:10;;;;;;;13.23;9.63;;;5.00;99.90;;;;;;5029942;28;20427;-74
2021/01/31 12:15:36;;;;;;;12.63;10.27;;;4.90;99.90;;;;;;5031447;28;20612;-74
2021/01/31 12:18:02;;;;;;;14.47;9.27;;;4.90;99.90;;;;;;5030857;28;20229;-74
2021/01/31 12:20:27;;;;;;;13.50;10.33;;;4.90;99.90;;;;;;5030965;28;20280;-74
2021/01/31 12:22:53;;;;;;;14.37;9.80;;;5.00;99.90;;;;;;5031383;28;20218;-74
2021/01/31 12:25:18;;;;;;;12.80;10.37;;;5.00;99.90;;;;;;5030818;28;20195;-73
2021/01/31 12:27:47;;;;;;;14.03;10.03;;;5.00;99.90;;;;;;5031022;28;20207;-73
2021/01/31 12:30:14;;;;;;;14.00;10.50;;;4.90;99.90;;;;;;5030694;28;20504;-73
2021/01/31 12:32:40;;;;;;;14.13;10.10;;;5.00;99.90;;;;;;5030833;28;20434;-73
2021/01/31 12:35:05;;;;;;;12.80;10.37;;;4.90;99.90;;;;;;5030622;28;20485;-73
2021/01/31 12:37:31;;;;;;;18.20;10.37;;;5.00;99.90;;;;;;5030676;28;20650;-73
2021/01/31 12:39:57;;;;;;;13.33;10.53;;;5.10;99.90;;;;;;5030298;28;20188;-72
2021/01/31 12:42:23;;;;;;;14.03;9.90;;;5.10;99.90;;;;;;5029754;28;20185;-74
2021/01/31 12:44:49;;;;;;;14.93;10.30;;;5.20;99.90;;;;;;5031150;28;20238;-73
2021/01/31 12:47:15;;;;;;;12.60;10.20;;;5.20;99.90;;;;;;5030655;28;20436;-73
2021/01/31 12:49:40;;;;;;;13.70;9.40;;;5.30;99.90;;;;;;5029993;28;20504;-74
2021/01/31 12:52:06;;;;;;;13.60;9.37;;;5.10;99.90;;;;;;5030300;28;20185;-74
2021/01/31 12:54:32;;;;;;;14.63;10.57;;;5.10;99.90;;;;;;5028919;28;20195;-74
2021/01/31 12:56:58;;;;;;;13.50;10.27;;;5.20;99.90;;;;;;5023942;28;20208;-73
2021/01/31 12:59:23;;;;;;;14.60;10.77;;;5.10;99.90;;;;;;5029184;28;20941;-74
2021/01/31 13:01:49;;;;;;;14.10;8.83;;;5.10;99.90;;;;;;5030474;28;20475;-74
2021/01/31 13:04:15;;;;;;;14.50;9.90;;;5.00;99.90;;;;;;5028648;28;20220;-73